Time;durP1;ratioP1;P1;durP2;ratioP2;P2;SDS_P1;SDS_P2;PMS_P1;PMS_P2;Temp;Humidity;BMP_temperature;BMP_pressure;BME280_temperature;BME280_humidity;BME280_pressure;Samples;Min_cycle;Max_cycle;Signal;HPM_P1;HPM_P2
2021/01/11 00:01:27;;;;;;;1999.90;999.90;;;;;;;;;;5018432;28;20022;-87
2021/01/11 00:03:53;;;;;;;1999.90;999.90;;;;;;;;;;5020681;28;20141;-86
2021/01/11 00:06:18;;;;;;;1999.90;999.90;;;;;;;;;;5018975;28;20154;-87
2021/01/11 00:08:45;;;;;;;1999.90;999.90;;;;;;;;;;5020454;28;20022;-87
2021/01/11 00:11:12;;;;;;;1999.90;999.90;;;;;;;;;;5021410;28;20028;-86
2021/01/11 00:13:37;;;;;;;1999.90;999.90;;;;;;;;;;5019471;28;20066;-86
2021/01/11 00:16:02;;;;;;;1999.90;999.90;;;;;;;;;;5023331;28;20102;-86
2021/01/11 00:18:28;;;;;;;1999.90;999.90;;;;;;;;;;5018071;28;20033;-87
2021/01/11 00:20:53;;;;;;;1999.90;999.90;;;;;;;;;;5016992;28;20033;-86
2021/01/11 00:23:19;;;;;;;1999.90;999.90;;;;;;;;;;5021477;28;20850;-85
2021/01/11 00:25:44;;;;;;;1999.90;999.90;;;;;;;;;;5018393;28;20030;-86
2021/01/11 00:28:10;;;;;;;1999.90;999.90;;;;;;;;;;5017426;28;20021;-86
2021/01/11 00:30:35;;;;;;;1999.90;999.90;;;;;;;;;;5021909;28;20024;-86
2021/01/11 00:33:00;;;;;;;1999.90;999.90;;;;;;;;;;5021332;28;20026;-86
2021/01/11 00:35:26;;;;;;;1999.90;999.90;;;;;;;;;;5026682;28;20030;-87
2021/01/11 00:37:51;;;;;;;1999.90;999.90;;;;;;;;;;5022464;28;20045;-86
2021/01/11 00:40:17;;;;;;;1999.90;999.90;;;;;;;;;;5023437;28;20009;-86
2021/01/11 00:42:42;;;;;;;1999.90;999.90;;;;;;;;;;5028124;28;20033;-87
2021/01/11 00:45:08;;;;;;;1999.90;999.90;;;;;;;;;;5023452;28;20032;-86
2021/01/11 00:47:37;;;;;;;1999.90;999.90;;;;;;;;;;5028623;28;20041;-86
2021/01/11 00:50:03;;;;;;;1999.90;999.90;;;;;;;;;;5021453;28;20053;-87
2021/01/11 00:52:28;;;;;;;1999.90;999.90;;;;;;;;;;5025865;28;20033;-87
2021/01/11 00:54:54;;;;;;;1999.90;999.90;;;;;;;;;;5029762;28;20018;-86
2021/01/11 00:57:20;;;;;;;1999.90;999.90;;;;;;;;;;5030766;28;20033;-86
2021/01/11 00:59:51;;;;;;;1999.90;999.90;;;;;;;;;;5025500;28;20022;-87
2021/01/11 01:02:22;;;;;;;1999.90;999.90;;;;;;;;;;5026235;28;20044;-84
2021/01/11 01:04:47;;;;;;;1999.90;999.90;;;;;;;;;;5025516;28;20025;-84
2021/01/11 01:07:13;;;;;;;1999.90;999.90;;;;;;;;;;5017926;28;20032;-85
2021/01/11 01:09:38;;;;;;;1999.90;999.90;;;;;;;;;;5028233;28;20490;-84
2021/01/11 01:12:04;;;;;;;1999.90;999.90;;;;;;;;;;5029023;28;20032;-85
2021/01/11 01:14:29;;;;;;;1999.90;999.90;;;;;;;;;;5024610;28;20037;-87
2021/01/11 01:16:55;;;;;;;1999.90;999.90;;;;;;;;;;5028050;28;20032;-87
2021/01/11 01:19:20;;;;;;;1999.90;999.90;;;;;;;;;;5015219;28;20034;-87
2021/01/11 01:21:46;;;;;;;1999.90;999.90;;;;;;;;;;5015349;28;20430;-88
2021/01/11 01:24:11;;;;;;;1999.90;999.90;;;;;;;;;;5020754;28;20025;-87
2021/01/11 01:26:36;;;;;;;1999.90;999.90;;;;;;;;;;5026519;28;20025;-88
2021/01/11 01:29:02;;;;;;;1999.90;999.90;;;;;;;;;;5013000;28;20110;-88
2021/01/11 01:31:27;;;;;;;1999.90;999.90;;;;;;;;;;5023953;28;20052;-88
2021/01/11 01:33:53;;;;;;;1999.90;999.90;;;;;;;;;;5022961;28;20034;-88
2021/01/11 01:36:19;;;;;;;1999.90;999.90;;;;;;;;;;5017955;28;20108;-87
2021/01/11 01:38:44;;;;;;;1999.90;999.90;;;;;;;;;;5015231;28;20061;-86
2021/01/11 01:41:10;;;;;;;1999.90;999.90;;;;;;;;;;5020836;28;20418;-87
2021/01/11 01:43:35;;;;;;;1999.90;999.90;;;;;;;;;;5019729;28;20121;-87
2021/01/11 01:46:01;;;;;;;1999.90;999.90;;;;;;;;;;5014430;28;20033;-87
2021/01/11 01:48:27;;;;;;;1999.90;999.90;;;;;;;;;;5022816;28;20133;-87
2021/01/11 01:50:52;;;;;;;1999.90;999.90;;;;;;;;;;5016849;28;20045;-88
2021/01/11 01:53:18;;;;;;;1999.90;999.90;;;;;;;;;;5017488;28;20064;-88
2021/01/11 01:55:43;;;;;;;1999.90;999.90;;;;;;;;;;5018722;28;20029;-88
2021/01/11 01:58:09;;;;;;;1999.90;999.90;;;;;;;;;;5017450;28;20560;-88
2021/01/11 02:00:34;;;;;;;1999.90;999.90;;;;;;;;;;5013844;28;20026;-88
2021/01/11 02:03:00;;;;;;;1999.90;999.90;;;;;;;;;;5022769;28;20083;-87
2021/01/11 02:05:25;;;;;;;1999.90;999.90;;;;;;;;;;5020260;28;20014;-88
2021/01/11 02:07:59;;;;;;;1999.90;999.90;;;;;;;;;;5014775;28;20116;-87
2021/01/11 02:10:29;;;;;;;1999.90;999.90;;;;;;;;;;5014505;28;20105;-87
2021/01/11 02:13:10;;;;;;;1999.90;999.90;;;;;;;;;;5027735;28;20080;-88
2021/01/11 02:15:55;;;;;;;1999.90;999.90;;;;;;;;;;5015350;28;20562;-86
2021/01/11 02:18:26;;;;;;;1999.90;999.90;;;;;;;;;;5008150;28;20153;-87
2021/01/11 02:21:00;;;;;;;1999.90;999.90;;;;;;;;;;5020609;28;20505;-87
2021/01/11 02:23:49;;;;;;;1999.90;999.90;;;;;;;;;;5022684;28;20457;-87
2021/01/11 02:26:27;;;;;;;1999.90;999.90;;;;;;;;;;5019429;28;20041;-87
2021/01/11 02:29:04;;;;;;;1999.90;999.90;;;;;;;;;;5014920;28;20034;-87
2021/01/11 02:31:30;;;;;;;1999.90;999.90;;;;;;;;;;5021394;28;20026;-87
2021/01/11 02:33:57;;;;;;;1999.90;999.90;;;;;;;;;;5023373;28;20088;-86
2021/01/11 02:36:23;;;;;;;1999.90;999.90;;;;;;;;;;5021320;28;20030;-87
2021/01/11 02:38:49;;;;;;;1999.90;999.90;;;;;;;;;;5023103;28;20068;-87
2021/01/11 02:41:15;;;;;;;1999.90;999.90;;;;;;;;;;5021862;28;20032;-87
2021/01/11 02:43:40;;;;;;;1999.90;999.90;;;;;;;;;;5020696;28;20021;-87
2021/01/11 02:46:06;;;;;;;1999.90;999.90;;;;;;;;;;5021353;28;20034;-86
2021/01/11 02:49:00;;;;;;;1999.90;999.90;;;;;;;;;;5020085;28;20081;-87
2021/01/11 02:51:33;;;;;;;1999.90;999.90;;;;;;;;;;5018645;28;20064;-87
2021/01/11 02:54:10;;;;;;;1999.90;999.90;;;;;;;;;;5019526;28;20033;-86
2021/01/11 02:57:02;;;;;;;1999.90;999.90;;;;;;;;;;5020103;28;20022;-86
2021/01/11 02:59:36;;;;;;;1999.90;999.90;;;;;;;;;;5011772;28;20034;-86
2021/01/11 03:02:03;;;;;;;1999.90;999.90;;;;;;;;;;5015962;28;20467;-85
2021/01/11 03:04:30;;;;;;;1999.90;999.90;;;;;;;;;;5020166;28;20121;-86
2021/01/11 03:06:59;;;;;;;1999.90;999.90;;;;;;;;;;5019560;28;20042;-85
2021/01/11 03:09:25;;;;;;;1999.90;999.90;;;;;;;;;;5020128;28;20026;-86
2021/01/11 03:11:51;;;;;;;1999.90;999.90;;;;;;;;;;5019240;28;20033;-85
2021/01/11 03:14:16;;;;;;;1999.90;999.90;;;;;;;;;;5019480;28;20021;-85
2021/01/11 03:16:42;;;;;;;1999.90;999.90;;;;;;;;;;5019215;28;20041;-85
2021/01/11 03:19:07;;;;;;;1999.90;999.90;;;;;;;;;;5017555;28;20024;-85
2021/01/11 03:21:33;;;;;;;1999.90;999.90;;;;;;;;;;5021409;28;20083;-87
2021/01/11 03:23:59;;;;;;;1999.90;999.90;;;;;;;;;;5022433;28;20477;-84
2021/01/11 03:26:24;;;;;;;1999.90;999.90;;;;;;;;;;5026566;28;20042;-86
2021/01/11 03:28:50;;;;;;;1999.90;999.90;;;;;;;;;;5022393;28;20092;-84
2021/01/11 03:31:15;;;;;;;1999.90;999.90;;;;;;;;;;5021538;28;20034;-86
2021/01/11 03:33:41;;;;;;;1999.90;999.90;;;;;;;;;;5022633;28;20021;-86
2021/01/11 03:36:06;;;;;;;1999.90;999.90;;;;;;;;;;5022331;28;20033;-86
2021/01/11 03:38:32;;;;;;;1999.90;999.90;;;;;;;;;;5018922;28;20020;-86
2021/01/11 03:41:01;;;;;;;1999.90;999.90;;;;;;;;;;5024375;28;20155;-86
2021/01/11 03:43:26;;;;;;;1999.90;999.90;;;;;;;;;;5026280;28;20025;-86
2021/01/11 03:45:52;;;;;;;1999.90;999.90;;;;;;;;;;5023388;28;20493;-86
2021/01/11 03:48:17;;;;;;;1999.90;999.90;;;;;;;;;;5023425;28;20097;-86
2021/01/11 03:50:43;;;;;;;1999.90;999.90;;;;;;;;;;5022353;28;20491;-87
2021/01/11 03:53:08;;;;;;;1999.90;999.90;;;;;;;;;;5017978;28;20549;-86
2021/01/11 03:55:34;;;;;;;1999.90;999.90;;;;;;;;;;5024814;28;20386;-87
2021/01/11 03:57:59;;;;;;;1999.90;999.90;;;;;;;;;;5021740;28;20634;-86
2021/01/11 04:00:25;;;;;;;1999.90;999.90;;;;;;;;;;5022901;28;20109;-87
2021/01/11 04:02:50;;;;;;;1999.90;999.90;;;;;;;;;;5017432;28;20018;-85
2021/01/11 04:05:15;;;;;;;1999.90;999.90;;;;;;;;;;5017684;28;20053;-86
2021/01/11 04:07:41;;;;;;;1999.90;999.90;;;;;;;;;;5019252;28;20112;-86
2021/01/11 04:10:07;;;;;;;1999.90;999.90;;;;;;;;;;5023141;28;20117;-85
2021/01/11 04:12:32;;;;;;;1999.90;999.90;;;;;;;;;;5025450;28;20474;-85
2021/01/11 04:14:58;;;;;;;1999.90;999.90;;;;;;;;;;5018872;28;20026;-85
2021/01/11 04:17:23;;;;;;;1999.90;999.90;;;;;;;;;;5022369;28;20037;-86
2021/01/11 04:19:48;;;;;;;1999.90;999.90;;;;;;;;;;5021470;28;20037;-86
2021/01/11 04:22:14;;;;;;;1999.90;999.90;;;;;;;;;;5025213;28;20454;-86
2021/01/11 04:24:39;;;;;;;1999.90;999.90;;;;;;;;;;5021682;28;20505;-86
2021/01/11 04:27:05;;;;;;;1999.90;999.90;;;;;;;;;;5023325;28;20029;-86
2021/01/11 04:29:30;;;;;;;1999.90;999.90;;;;;;;;;;5021096;28;20026;-86
2021/01/11 04:31:55;;;;;;;1999.90;999.90;;;;;;;;;;5019405;28;20013;-86
2021/01/11 04:34:21;;;;;;;1999.90;999.90;;;;;;;;;;5018673;28;20034;-86
2021/01/11 04:36:46;;;;;;;1999.90;999.90;;;;;;;;;;5017683;28;20105;-86
2021/01/11 04:39:12;;;;;;;1999.90;999.90;;;;;;;;;;5017499;28;20470;-86
2021/01/11 04:41:39;;;;;;;1999.90;999.90;;;;;;;;;;5026060;28;20040;-86
2021/01/11 04:44:09;;;;;;;1999.90;999.90;;;;;;;;;;5026502;28;20105;-87
2021/01/11 04:46:35;;;;;;;1999.90;999.90;;;;;;;;;;5020689;28;20042;-86
2021/01/11 04:49:00;;;;;;;1999.90;999.90;;;;;;;;;;5023782;28;20122;-86
2021/01/11 04:51:26;;;;;;;1999.90;999.90;;;;;;;;;;5017804;28;20262;-87
2021/01/11 04:53:52;;;;;;;1999.90;999.90;;;;;;;;;;5015968;28;20049;-87
2021/01/11 04:56:19;;;;;;;1999.90;999.90;;;;;;;;;;5017919;28;20425;-86
2021/01/11 04:59:02;;;;;;;1999.90;999.90;;;;;;;;;;5017498;28;20060;-87
2021/01/11 05:01:28;;;;;;;1999.90;999.90;;;;;;;;;;5017423;28;20641;-86
2021/01/11 05:03:58;;;;;;;1999.90;999.90;;;;;;;;;;5019624;28;20105;-86
2021/01/11 05:06:23;;;;;;;1999.90;999.90;;;;;;;;;;5018113;28;20088;-87
2021/01/11 05:08:49;;;;;;;1999.90;999.90;;;;;;;;;;5016882;28;20025;-87
2021/01/11 05:11:14;;;;;;;1999.90;999.90;;;;;;;;;;5015894;28;20055;-86
2021/01/11 05:13:40;;;;;;;1999.90;999.90;;;;;;;;;;5017520;28;20097;-86
2021/01/11 05:16:12;;;;;;;1999.90;999.90;;;;;;;;;;5016242;28;20077;-88
2021/01/11 05:18:38;;;;;;;1999.90;999.90;;;;;;;;;;5020693;28;20045;-86
2021/01/11 05:21:03;;;;;;;1999.90;999.90;;;;;;;;;;5015171;28;20510;-87
2021/01/11 05:23:33;;;;;;;1999.90;999.90;;;;;;;;;;5017768;28;20116;-87
2021/01/11 05:25:59;;;;;;;1999.90;999.90;;;;;;;;;;5021980;28;20048;-86
2021/01/11 05:28:24;;;;;;;1999.90;999.90;;;;;;;;;;5022365;28;20100;-86
2021/01/11 05:30:50;;;;;;;1999.90;999.90;;;;;;;;;;5020337;28;20068;-86
2021/01/11 05:33:23;;;;;;;1999.90;999.90;;;;;;;;;;5020844;28;20017;-86
2021/01/11 05:36:08;;;;;;;1999.90;999.90;;;;;;;;;;5019319;28;20029;-87
2021/01/11 05:38:35;;;;;;;1999.90;999.90;;;;;;;;;;5018056;28;20045;-87
2021/01/11 05:41:11;;;;;;;1999.90;999.90;;;;;;;;;;5021898;28;20033;-87
2021/01/11 05:43:37;;;;;;;1999.90;999.90;;;;;;;;;;5017453;28;20410;-89
2021/01/11 05:46:20;;;;;;;1999.90;999.90;;;;;;;;;;5017161;28;20046;-82
2021/01/11 05:48:55;;;;;;;1999.90;999.90;;;;;;;;;;5019189;28;20447;-83
2021/01/11 05:51:29;;;;;;;1999.90;999.90;;;;;;;;;;5026608;28;20033;-90
2021/01/11 05:53:55;;;;;;;1999.90;999.90;;;;;;;;;;5021504;28;20033;-83
2021/01/11 05:56:21;;;;;;;1999.90;999.90;;;;;;;;;;5020830;28;20026;-86
2021/01/11 05:59:02;;;;;;;1999.90;999.90;;;;;;;;;;5011888;28;20079;-86
2021/01/11 06:01:28;;;;;;;1999.90;999.90;;;;;;;;;;5018542;28;20397;-86
2021/01/11 06:03:53;;;;;;;1999.90;999.90;;;;;;;;;;5024897;28;20021;-86
2021/01/11 06:06:19;;;;;;;1999.90;999.90;;;;;;;;;;5023648;28;20080;-87
2021/01/11 06:08:45;;;;;;;1999.90;999.90;;;;;;;;;;5024819;28;20029;-86
2021/01/11 06:11:10;;;;;;;1999.90;999.90;;;;;;;;;;5022037;28;20109;-87
2021/01/11 06:13:36;;;;;;;1999.90;999.90;;;;;;;;;;5028646;28;20024;-86
2021/01/11 06:16:02;;;;;;;1999.90;999.90;;;;;;;;;;5027345;28;20026;-86
2021/01/11 06:18:27;;;;;;;1999.90;999.90;;;;;;;;;;5015021;28;20376;-87
2021/01/11 06:20:53;;;;;;;1999.90;999.90;;;;;;;;;;5015557;28;20022;-86
2021/01/11 06:23:26;;;;;;;1999.90;999.90;;;;;;;;;;5020139;28;20025;-81
2021/01/11 06:25:52;;;;;;;1999.90;999.90;;;;;;;;;;5028812;28;20125;-87
2021/01/11 06:28:27;;;;;;;1999.90;999.90;;;;;;;;;;5028289;28;20175;-88
2021/01/11 06:30:53;;;;;;;;;;;;;;;;;;5016566;28;20139;-86
2021/01/11 06:33:25;;;;;;;1999.90;999.90;;;;;;;;;;5018732;28;20020;-86
2021/01/11 06:35:51;;;;;;;1999.90;999.90;;;;;;;;;;5022429;28;20100;-86
2021/01/11 06:38:26;;;;;;;1999.90;999.90;;;;;;;;;;5022789;28;20018;-84
2021/01/11 06:40:53;;;;;;;1999.90;999.90;;;;;;;;;;5023641;28;20034;-90
2021/01/11 06:43:19;;;;;;;1999.90;999.90;;;;;;;;;;5029646;28;20101;-82
2021/01/11 06:45:45;;;;;;;1999.90;999.90;;;;;;;;;;5024226;28;20327;-87
2021/01/11 06:48:20;;;;;;;1999.90;999.90;;;;;;;;;;5021340;28;20033;-86
2021/01/11 06:50:49;;;;;;;1999.90;999.90;;;;;;;;;;5018561;28;20048;-87
2021/01/11 06:53:25;;;;;;;1999.90;999.90;;;;;;;;;;5018903;28;20042;-82
2021/01/11 06:56:10;;;;;;;1999.90;999.90;;;;;;;;;;5018035;28;20065;-68
2021/01/11 06:58:37;;;;;;;1999.90;999.90;;;;;;;;;;5020186;28;20030;-84
2021/01/11 07:01:03;;;;;;;1999.90;999.90;;;;;;;;;;5016562;28;20021;-86
2021/01/11 07:03:48;;;;;;;1999.90;999.90;;;;;;;;;;5028423;28;20074;-87
2021/01/11 07:06:31;;;;;;;1999.90;999.90;;;;;;;;;;5021280;28;20037;-86
2021/01/11 07:09:06;;;;;;;1999.90;999.90;;;;;;;;;;5018448;28;20037;-86
2021/01/11 07:11:32;;;;;;;1999.90;999.90;;;;;;;;;;5025809;28;20025;-86
2021/01/11 07:13:58;;;;;;;1999.90;999.90;;;;;;;;;;5028080;28;20010;-88
2021/01/11 07:16:36;;;;;;;1999.90;999.90;;;;;;;;;;5022764;28;20091;-90
2021/01/11 07:19:01;;;;;;;1999.90;999.90;;;;;;;;;;5023467;28;20474;-90
2021/01/11 07:21:27;;;;;;;1999.90;999.90;;;;;;;;;;5025656;28;20048;-94
2021/01/11 07:23:53;;;;;;;1999.90;999.90;;;;;;;;;;5033461;28;20124;-93
2021/01/11 07:26:22;;;;;;;1999.90;999.90;;;;;;;;;;5023828;28;20029;-92
2021/01/11 07:28:56;;;;;;;1999.90;999.90;;;;;;;;;;5034969;28;20036;-94
2021/01/11 07:31:29;;;;;;;1999.90;999.90;;;;;;;;;;5029089;28;20022;-94
2021/01/11 07:34:02;;;;;;;1999.90;999.90;;;;;;;;;;5029325;28;20471;-92
2021/01/11 07:36:38;;;;;;;1999.90;999.90;;;;;;;;;;5023478;28;20043;-93
2021/01/11 07:39:11;;;;;;;1999.90;999.90;;;;;;;;;;5031488;28;20029;-95
2021/01/11 07:41:38;;;;;;;1999.90;999.90;;;;;;;;;;5033544;28;20048;-93
2021/01/11 07:44:10;;;;;;;1999.90;999.90;;;;;;;;;;5021513;28;20017;-93
2021/01/11 07:46:36;;;;;;;1999.90;999.90;;;;;;;;;;5026338;28;20048;-92
2021/01/11 07:49:11;;;;;;;1999.90;999.90;;;;;;;;;;5030047;28;20088;-92
2021/01/11 07:51:37;;;;;;;1999.90;999.90;;;;;;;;;;5023845;28;20050;-93
2021/01/11 07:54:06;;;;;;;1999.90;999.90;;;;;;;;;;5017398;28;20116;-91
2021/01/11 07:56:31;;;;;;;1999.90;999.90;;;;;;;;;;5026275;28;20414;-91
2021/01/11 07:58:56;;;;;;;1999.90;999.90;;;;;;;;;;5024730;28;20026;-90
2021/01/11 08:01:22;;;;;;;1999.90;999.90;;;;;;;;;;5025722;28;20179;-90
2021/01/11 08:03:49;;;;;;;1999.90;999.90;;;;;;;;;;5024493;28;20592;-91
2021/01/11 08:06:14;;;;;;;1999.90;999.90;;;;;;;;;;5028028;28;20044;-93
2021/01/11 08:08:41;;;;;;;1999.90;999.90;;;;;;;;;;5026384;28;20022;-92
2021/01/11 08:11:06;;;;;;;1999.90;999.90;;;;;;;;;;5030048;28;20029;-91
2021/01/11 08:13:31;;;;;;;1999.90;999.90;;;;;;;;;;5023629;28;20018;-91
2021/01/11 08:16:10;;;;;;;1999.90;999.90;;;;;;;;;;5017007;28;20042;-92
2021/01/11 08:18:37;;;;;;;1999.90;999.90;;;;;;;;;;5019700;28;20030;-92
2021/01/11 08:21:11;;;;;;;1999.90;999.90;;;;;;;;;;5024094;28;20068;-91
2021/01/11 08:23:37;;;;;;;1999.90;999.90;;;;;;;;;;5019032;28;20119;-92
2021/01/11 08:26:05;;;;;;;1999.90;999.90;;;;;;;;;;5025788;28;20029;-92
2021/01/11 08:28:31;;;;;;;1999.90;999.90;;;;;;;;;;5019615;28;20049;-91
2021/01/11 08:31:00;;;;;;;1999.90;999.90;;;;;;;;;;5027079;28;20063;-92
2021/01/11 08:33:28;;;;;;;1999.90;999.90;;;;;;;;;;5030129;28;20091;-92
2021/01/11 08:36:13;;;;;;;1999.90;999.90;;;;;;;;;;5030813;28;20021;-91
2021/01/11 08:38:57;;;;;;;1999.90;999.90;;;;;;;;;;5029389;28;20048;-92
2021/01/11 08:41:24;;;;;;;1999.90;999.90;;;;;;;;;;5020472;28;20474;-90
2021/01/11 08:43:49;;;;;;;1999.90;999.90;;;;;;;;;;5025924;28;20072;-91
2021/01/11 08:46:14;;;;;;;1999.90;999.90;;;;;;;;;;5023348;28;20088;-88
2021/01/11 08:48:40;;;;;;;1999.90;999.90;;;;;;;;;;5014165;28;20025;-87
2021/01/11 08:51:05;;;;;;;1999.90;999.90;;;;;;;;;;5018936;28;20045;-88
2021/01/11 08:53:33;;;;;;;1999.90;999.90;;;;;;;;;;5016031;28;20022;-88
2021/01/11 08:56:12;;;;;;;1999.90;999.90;;;;;;;;;;5020181;28;20120;-90
2021/01/11 08:58:38;;;;;;;1999.90;999.90;;;;;;;;;;5017747;28;20037;-87
2021/01/11 09:01:07;;;;;;;1999.90;999.90;;;;;;;;;;5025472;28;20036;-90
2021/01/11 09:03:40;;;;;;;1999.90;999.90;;;;;;;;;;5020687;28;20518;-87
2021/01/11 09:06:05;;;;;;;1999.90;999.90;;;;;;;;;;5018193;28;20041;-89
2021/01/11 09:08:31;;;;;;;1999.90;999.90;;;;;;;;;;5019341;28;20017;-88
2021/01/11 09:10:56;;;;;;;1999.90;999.90;;;;;;;;;;5021584;28;20674;-88
2021/01/11 09:13:25;;;;;;;1999.90;999.90;;;;;;;;;;5018520;28;20018;-89
2021/01/11 09:15:51;;;;;;;1999.90;999.90;;;;;;;;;;5016184;28;20036;-87
2021/01/11 09:18:16;;;;;;;1999.90;999.90;;;;;;;;;;5017984;28;20017;-88
2021/01/11 09:20:43;;;;;;;1999.90;999.90;;;;;;;;;;5023580;28;20380;-88
2021/01/11 09:23:09;;;;;;;1999.90;999.90;;;;;;;;;;5020380;28;20096;-87
2021/01/11 09:25:34;;;;;;;1999.90;999.90;;;;;;;;;;5026485;28;20065;-93
2021/01/11 09:28:01;;;;;;;1999.90;999.90;;;;;;;;;;5016350;28;20017;-88
2021/01/11 09:30:28;;;;;;;1999.90;999.90;;;;;;;;;;5017833;28;20528;-89
2021/01/11 09:32:53;;;;;;;1999.90;999.90;;;;;;;;;;5016913;28;20016;-89
2021/01/11 09:35:19;;;;;;;1999.90;999.90;;;;;;;;;;5024183;28;20033;-89
2021/01/11 09:37:45;;;;;;;1999.90;999.90;;;;;;;;;;5017941;28;20030;-89
2021/01/11 09:40:10;;;;;;;1999.90;999.90;;;;;;;;;;5020557;28;20073;-87
2021/01/11 09:42:36;;;;;;;1999.90;999.90;;;;;;;;;;5016166;28;20029;-87
2021/01/11 09:45:02;;;;;;;1999.90;999.90;;;;;;;;;;5018264;28;20109;-88
2021/01/11 09:47:27;;;;;;;1999.90;999.90;;;;;;;;;;5019702;28;20344;-87
2021/01/11 09:49:52;;;;;;;1999.90;999.90;;;;;;;;;;5018262;28;20045;-84
2021/01/11 09:52:18;;;;;;;1999.90;999.90;;;;;;;;;;5017073;28;20029;-88
2021/01/11 09:54:43;;;;;;;1999.90;999.90;;;;;;;;;;5016701;28;20056;-87
2021/01/11 09:57:10;;;;;;;1999.90;999.90;;;;;;;;;;5015216;28;20029;-88
2021/01/11 09:59:38;;;;;;;1999.90;999.90;;;;;;;;;;5029484;28;20044;-89
2021/01/11 10:02:04;;;;;;;1999.90;999.90;;;;;;;;;;5020020;28;20641;-88
2021/01/11 10:04:30;;;;;;;1999.90;999.90;;;;;;;;;;5020480;28;20056;-88
2021/01/11 10:06:56;;;;;;;1999.90;999.90;;;;;;;;;;5020119;28;20025;-88
2021/01/11 10:09:25;;;;;;;1999.90;999.90;;;;;;;;;;5020304;28;20021;-88
2021/01/11 10:11:52;;;;;;;1999.90;999.90;;;;;;;;;;5017633;28;20030;-84
2021/01/11 10:14:18;;;;;;;1999.90;999.90;;;;;;;;;;5023189;28;20146;-88
2021/01/11 10:16:44;;;;;;;1999.90;999.90;;;;;;;;;;5011933;28;20053;-88
2021/01/11 10:19:10;;;;;;;1999.90;999.90;;;;;;;;;;5017531;28;20477;-88
2021/01/11 10:21:36;;;;;;;1999.90;999.90;;;;;;;;;;5018964;28;20022;-87
2021/01/11 10:24:02;;;;;;;1999.90;999.90;;;;;;;;;;5014115;28;20029;-87
2021/01/11 10:26:28;;;;;;;1999.90;999.90;;;;;;;;;;5017063;28;20034;-87
2021/01/11 10:28:53;;;;;;;1999.90;999.90;;;;;;;;;;5022373;28;20025;-89
2021/01/11 10:31:18;;;;;;;1999.90;999.90;;;;;;;;;;5024190;28;20228;-91
2021/01/11 10:33:45;;;;;;;1999.90;999.90;;;;;;;;;;5025818;28;20045;-88
2021/01/11 10:36:11;;;;;;;1999.90;999.90;;;;;;;;;;5016562;28;20030;-88
2021/01/11 10:38:36;;;;;;;1999.90;999.90;;;;;;;;;;5034859;28;20675;-88
2021/01/11 10:41:01;;;;;;;1999.90;999.90;;;;;;;;;;5024808;28;20623;-85
2021/01/11 10:43:29;;;;;;;1999.90;999.90;;;;;;;;;;5024873;28;20037;-89
2021/01/11 10:45:54;;;;;;;1999.90;999.90;;;;;;;;;;5017817;28;20213;-90
2021/01/11 10:48:20;;;;;;;1999.90;999.90;;;;;;;;;;5023574;28;20109;-91
2021/01/11 10:50:45;;;;;;;1999.90;999.90;;;;;;;;;;5021554;28;20116;-83
2021/01/11 10:53:12;;;;;;;1999.90;999.90;;;;;;;;;;5021551;28;20116;-82
2021/01/11 10:55:37;;;;;;;1999.90;999.90;;;;;;;;;;5022200;28;20044;-77
2021/01/11 10:58:03;;;;;;;1999.90;999.90;;;;;;;;;;5023899;28;20034;-75
2021/01/11 11:00:28;;;;;;;1999.90;999.90;;;;;;;;;;5020784;28;20124;-76
2021/01/11 11:02:54;;;;;;;1999.90;999.90;;;;;;;;;;5027088;28;20033;-88
2021/01/11 11:05:19;;;;;;;1999.90;999.90;;;;;;;;;;5028490;28;20018;-88
2021/01/11 11:07:45;;;;;;;1999.90;999.90;;;;;;;;;;5023632;28;20530;-88
2021/01/11 11:10:10;;;;;;;1999.90;999.90;;;;;;;;;;5028481;28;20375;-88
2021/01/11 11:12:36;;;;;;;1999.90;999.90;;;;;;;;;;5025696;28;20116;-90
2021/01/11 11:15:02;;;;;;;1999.90;999.90;;;;;;;;;;5028481;28;20044;-88
2021/01/11 11:17:30;;;;;;;1999.90;999.90;;;;;;;;;;5024993;28;20026;-89
2021/01/11 11:19:56;;;;;;;1999.90;999.90;;;;;;;;;;5029226;28;20029;-89
2021/01/11 11:22:22;;;;;;;1999.90;999.90;;;;;;;;;;5021856;28;20034;-88
2021/01/11 11:24:47;;;;;;;1999.90;999.90;;;;;;;;;;5025709;28;20172;-89
2021/01/11 11:27:13;;;;;;;1999.90;999.90;;;;;;;;;;5024263;28;20038;-87
2021/01/11 11:29:38;;;;;;;1999.90;999.90;;;;;;;;;;5027332;28;20018;-89
2021/01/11 11:32:04;;;;;;;1999.90;999.90;;;;;;;;;;5029634;28;20401;-87
2021/01/11 11:34:30;;;;;;;1999.90;999.90;;;;;;;;;;5023201;28;20026;-89
2021/01/11 11:36:56;;;;;;;1999.90;999.90;;;;;;;;;;5019071;28;20026;-89
2021/01/11 11:39:21;;;;;;;1999.90;999.90;;;;;;;;;;5019967;28;20533;-88
2021/01/11 11:41:47;;;;;;;1999.90;999.90;;;;;;;;;;5017860;28;20030;-89
2021/01/11 11:44:12;;;;;;;1999.90;999.90;;;;;;;;;;5017308;28;20023;-89
2021/01/11 11:46:37;;;;;;;1999.90;999.90;;;;;;;;;;5018672;28;20041;-90
2021/01/11 11:49:03;;;;;;;1999.90;999.90;;;;;;;;;;5016690;28;20516;-88
2021/01/11 11:51:28;;;;;;;1999.90;999.90;;;;;;;;;;5026707;28;20042;-88
2021/01/11 11:53:54;;;;;;;1999.90;999.90;;;;;;;;;;5019836;28;20030;-90
2021/01/11 11:56:19;;;;;;;1999.90;999.90;;;;;;;;;;5019692;28;20033;-90
2021/01/11 11:58:44;;;;;;;1999.90;999.90;;;;;;;;;;5021083;28;20101;-90
2021/01/11 12:01:10;;;;;;;1999.90;999.90;;;;;;;;;;5018456;28;20082;-89
2021/01/11 12:03:35;;;;;;;1999.90;999.90;;;;;;;;;;5021497;28;20032;-89
2021/01/11 12:06:01;;;;;;;1999.90;999.90;;;;;;;;;;5016856;28;20080;-88
2021/01/11 12:08:26;;;;;;;1999.90;999.90;;;;;;;;;;5039037;28;20029;-88
2021/01/11 12:10:52;;;;;;;1999.90;999.90;;;;;;;;;;5039042;28;20029;-91
2021/01/11 12:13:17;;;;;;;1999.90;999.90;;;;;;;;;;5023285;28;20631;-87
2021/01/11 12:15:42;;;;;;;1999.90;999.90;;;;;;;;;;5025372;28;20474;-89
2021/01/11 12:18:08;;;;;;;1999.90;999.90;;;;;;;;;;5018479;28;20096;-88
2021/01/11 12:20:33;;;;;;;1999.90;999.90;;;;;;;;;;5023419;28;20074;-89
2021/01/11 12:22:59;;;;;;;1999.90;999.90;;;;;;;;;;5024093;28;20025;-89
2021/01/11 12:25:24;;;;;;;1999.90;999.90;;;;;;;;;;5018683;28;20084;-87
2021/01/11 12:27:51;;;;;;;1999.90;999.90;;;;;;;;;;5023292;28;20029;-88
2021/01/11 12:30:16;;;;;;;1999.90;999.90;;;;;;;;;;5019157;28;20040;-88
2021/01/11 12:32:46;;;;;;;1999.90;999.90;;;;;;;;;;5017605;28;20022;-87
2021/01/11 12:35:12;;;;;;;1999.90;999.90;;;;;;;;;;5021332;28;20108;-88
2021/01/11 12:37:37;;;;;;;1999.90;999.90;;;;;;;;;;5020733;28;20086;-88
2021/01/11 12:40:03;;;;;;;1999.90;999.90;;;;;;;;;;5017302;28;20041;-89
2021/01/11 12:42:28;;;;;;;1999.90;999.90;;;;;;;;;;5034211;28;20026;-88
2021/01/11 12:44:54;;;;;;;1999.90;999.90;;;;;;;;;;5024471;28;20080;-90
2021/01/11 12:47:19;;;;;;;1999.90;999.90;;;;;;;;;;5019991;28;20022;-88
2021/01/11 12:49:45;;;;;;;1999.90;999.90;;;;;;;;;;5021886;28;20057;-89
2021/01/11 12:52:11;;;;;;;1999.90;999.90;;;;;;;;;;5019557;28;20038;-89
2021/01/11 12:54:36;;;;;;;1999.90;999.90;;;;;;;;;;5024518;28;20030;-88
2021/01/11 12:57:02;;;;;;;1999.90;999.90;;;;;;;;;;5028199;28;20675;-88
2021/01/11 12:59:28;;;;;;;1999.90;999.90;;;;;;;;;;5017406;28;20029;-88
2021/01/11 13:01:55;;;;;;;1999.90;999.90;;;;;;;;;;5024202;28;20034;-89
2021/01/11 13:04:21;;;;;;;1999.90;999.90;;;;;;;;;;5024814;28;20037;-88
2021/01/11 13:06:46;;;;;;;1999.90;999.90;;;;;;;;;;5021526;28;20030;-86
2021/01/11 13:09:12;;;;;;;1999.90;999.90;;;;;;;;;;5027487;28;20025;-89
2021/01/11 13:11:38;;;;;;;1999.90;999.90;;;;;;;;;;5017582;28;20036;-88
2021/01/11 13:14:04;;;;;;;1999.90;999.90;;;;;;;;;;5016995;28;20030;-88
2021/01/11 13:16:37;;;;;;;1999.90;999.90;;;;;;;;;;5020395;28;20061;-88
2021/01/11 13:19:06;;;;;;;1999.90;999.90;;;;;;;;;;5037238;28;20569;-88
2021/01/11 13:21:32;;;;;;;1999.90;999.90;;;;;;;;;;5018457;28;20024;-89
2021/01/11 13:23:57;;;;;;;1999.90;999.90;;;;;;;;;;5026722;28;20100;-89
2021/01/11 13:26:24;;;;;;;1999.90;999.90;;;;;;;;;;5016636;28;20030;-89
2021/01/11 13:28:50;;;;;;;1999.90;999.90;;;;;;;;;;5015867;28;20089;-87
2021/01/11 13:31:15;;;;;;;1999.90;999.90;;;;;;;;;;5015879;28;20096;-85
2021/01/11 13:33:41;;;;;;;1999.90;999.90;;;;;;;;;;5018286;28;20028;-84
2021/01/11 13:36:06;;;;;;;1999.90;999.90;;;;;;;;;;5021795;28;20018;-87
2021/01/11 13:38:32;;;;;;;1999.90;999.90;;;;;;;;;;5018014;28;20021;-88
2021/01/11 13:40:57;;;;;;;1999.90;999.90;;;;;;;;;;5018706;28;20026;-85
2021/01/11 13:43:22;;;;;;;1999.90;999.90;;;;;;;;;;5021965;28;20026;-88